sensor_id;sensor_type;location;lat;lon;timestamp;P1;durP1;ratioP1;P2;durP2;ratioP2
21513;SDS011;10918;48.102;11.636;2023-03-01T00:00:40;17.80;;;12.98;;
21513;SDS011;10918;48.102;11.636;2023-03-01T00:03:06;17.60;;;12.52;;
21513;SDS011;10918;48.102;11.636;2023-03-01T00:05:32;20.80;;;12.35;;
21513;SDS011;10918;48.102;11.636;2023-03-01T00:07:58;17.55;;;12.30;;
21513;SDS011;10918;48.102;11.636;2023-03-01T00:10:24;16.58;;;12.13;;
21513;SDS011;10918;48.102;11.636;2023-03-01T00:12:51;19.08;;;12.45;;
21513;SDS011;10918;48.102;11.636;2023-03-01T00:15:17;16.88;;;12.20;;
21513;SDS011;10918;48.102;11.636;2023-03-01T00:17:43;16.42;;;11.80;;
21513;SDS011;10918;48.102;11.636;2023-03-01T00:20:09;17.25;;;12.43;;
21513;SDS011;10918;48.102;11.636;2023-03-01T00:22:36;17.30;;;12.80;;
21513;SDS011;10918;48.102;11.636;2023-03-01T00:25:02;24.20;;;16.35;;
21513;SDS011;10918;48.102;11.636;2023-03-01T00:27:29;17.10;;;13.38;;
21513;SDS011;10918;48.102;11.636;2023-03-01T00:29:55;17.80;;;12.60;;
21513;SDS011;10918;48.102;11.636;2023-03-01T00:32:20;18.20;;;12.98;;
21513;SDS011;10918;48.102;11.636;2023-03-01T00:34:46;15.50;;;11.68;;
21513;SDS011;10918;48.102;11.636;2023-03-01T00:37:19;17.30;;;12.27;;
21513;SDS011;10918;48.102;11.636;2023-03-01T00:39:46;17.65;;;12.25;;
21513;SDS011;10918;48.102;11.636;2023-03-01T00:42:11;18.83;;;11.52;;
21513;SDS011;10918;48.102;11.636;2023-03-01T00:44:37;16.25;;;12.38;;
21513;SDS011;10918;48.102;11.636;2023-03-01T00:47:04;17.08;;;12.55;;
21513;SDS011;10918;48.102;11.636;2023-03-01T00:49:30;18.25;;;12.85;;
21513;SDS011;10918;48.102;11.636;2023-03-01T00:51:56;16.77;;;12.20;;
21513;SDS011;10918;48.102;11.636;2023-03-01T00:54:22;16.90;;;12.23;;
21513;SDS011;10918;48.102;11.636;2023-03-01T00:56:48;16.42;;;13.05;;
21513;SDS011;10918;48.102;11.636;2023-03-01T00:59:14;17.88;;;12.38;;
21513;SDS011;10918;48.102;11.636;2023-03-01T01:01:40;14.82;;;12.05;;
21513;SDS011;10918;48.102;11.636;2023-03-01T01:04:10;17.45;;;12.80;;
21513;SDS011;10918;48.102;11.636;2023-03-01T01:06:46;17.48;;;12.25;;
21513;SDS011;10918;48.102;11.636;2023-03-01T01:09:13;16.80;;;12.15;;
21513;SDS011;10918;48.102;11.636;2023-03-01T01:11:46;17.98;;;13.07;;
21513;SDS011;10918;48.102;11.636;2023-03-01T01:14:12;18.30;;;12.63;;
21513;SDS011;10918;48.102;11.636;2023-03-01T01:16:38;18.65;;;13.45;;
21513;SDS011;10918;48.102;11.636;2023-03-01T01:19:05;18.08;;;12.75;;
21513;SDS011;10918;48.102;11.636;2023-03-01T01:21:31;18.45;;;12.88;;
21513;SDS011;10918;48.102;11.636;2023-03-01T01:23:57;18.80;;;12.95;;
21513;SDS011;10918;48.102;11.636;2023-03-01T01:26:24;16.63;;;12.23;;
21513;SDS011;10918;48.102;11.636;2023-03-01T01:28:51;21.25;;;13.13;;
21513;SDS011;10918;48.102;11.636;2023-03-01T01:31:18;16.35;;;12.38;;
21513;SDS011;10918;48.102;11.636;2023-03-01T01:33:44;18.27;;;12.23;;
21513;SDS011;10918;48.102;11.636;2023-03-01T01:36:10;19.17;;;12.40;;
21513;SDS011;10918;48.102;11.636;2023-03-01T01:38:37;17.38;;;12.52;;
21513;SDS011;10918;48.102;11.636;2023-03-01T01:41:03;17.48;;;12.25;;
21513;SDS011;10918;48.102;11.636;2023-03-01T01:43:32;17.10;;;12.93;;
21513;SDS011;10918;48.102;11.636;2023-03-01T01:48:44;16.85;;;11.65;;
21513;SDS011;10918;48.102;11.636;2023-03-01T01:51:17;18.67;;;12.68;;
21513;SDS011;10918;48.102;11.636;2023-03-01T01:53:44;21.75;;;13.13;;
21513;SDS011;10918;48.102;11.636;2023-03-01T01:56:11;15.52;;;12.18;;
21513;SDS011;10918;48.102;11.636;2023-03-01T01:58:39;18.83;;;12.88;;
21513;SDS011;10918;48.102;11.636;2023-03-01T02:01:06;16.95;;;11.93;;
21513;SDS011;10918;48.102;11.636;2023-03-01T02:03:33;15.55;;;12.52;;
21513;SDS011;10918;48.102;11.636;2023-03-01T02:08:31;20.20;;;13.82;;
21513;SDS011;10918;48.102;11.636;2023-03-01T02:10:59;16.20;;;11.73;;
21513;SDS011;10918;48.102;11.636;2023-03-01T02:13:26;18.45;;;12.75;;
21513;SDS011;10918;48.102;11.636;2023-03-01T02:15:52;17.80;;;12.50;;
21513;SDS011;10918;48.102;11.636;2023-03-01T02:18:18;16.80;;;11.95;;
21513;SDS011;10918;48.102;11.636;2023-03-01T02:23:28;18.58;;;12.50;;
21513;SDS011;10918;48.102;11.636;2023-03-01T02:30:57;19.05;;;12.20;;
21513;SDS011;10918;48.102;11.636;2023-03-01T02:33:42;17.17;;;13.07;;
21513;SDS011;10918;48.102;11.636;2023-03-01T02:36:10;17.00;;;12.95;;
21513;SDS011;10918;48.102;11.636;2023-03-01T02:38:38;16.52;;;12.23;;
21513;SDS011;10918;48.102;11.636;2023-03-01T02:41:04;17.05;;;12.68;;
21513;SDS011;10918;48.102;11.636;2023-03-01T02:43:32;16.40;;;11.85;;
21513;SDS011;10918;48.102;11.636;2023-03-01T02:46:02;16.40;;;11.93;;
21513;SDS011;10918;48.102;11.636;2023-03-01T02:48:38;20.48;;;12.70;;
21513;SDS011;10918;48.102;11.636;2023-03-01T02:51:05;16.27;;;12.68;;
21513;SDS011;10918;48.102;11.636;2023-03-01T02:55:59;22.40;;;12.82;;
21513;SDS011;10918;48.102;11.636;2023-03-01T02:58:25;17.48;;;12.70;;
21513;SDS011;10918;48.102;11.636;2023-03-01T03:00:51;16.80;;;12.27;;
21513;SDS011;10918;48.102;11.636;2023-03-01T03:03:17;18.75;;;13.07;;
21513;SDS011;10918;48.102;11.636;2023-03-01T03:05:44;17.33;;;12.82;;
21513;SDS011;10918;48.102;11.636;2023-03-01T03:08:10;18.17;;;12.82;;
21513;SDS011;10918;48.102;11.636;2023-03-01T03:10:38;16.48;;;12.40;;
21513;SDS011;10918;48.102;11.636;2023-03-01T03:13:05;20.45;;;12.00;;
21513;SDS011;10918;48.102;11.636;2023-03-01T03:15:32;18.10;;;12.75;;
21513;SDS011;10918;48.102;11.636;2023-03-01T03:18:02;18.77;;;13.05;;
21513;SDS011;10918;48.102;11.636;2023-03-01T03:20:28;17.17;;;12.23;;
21513;SDS011;10918;48.102;11.636;2023-03-01T03:22:55;18.15;;;12.77;;
21513;SDS011;10918;48.102;11.636;2023-03-01T03:25:21;18.05;;;12.73;;
21513;SDS011;10918;48.102;11.636;2023-03-01T03:27:48;18.88;;;13.43;;
21513;SDS011;10918;48.102;11.636;2023-03-01T03:30:16;18.20;;;12.32;;
21513;SDS011;10918;48.102;11.636;2023-03-01T03:32:43;18.17;;;13.05;;
21513;SDS011;10918;48.102;11.636;2023-03-01T03:35:17;17.52;;;12.75;;
21513;SDS011;10918;48.102;11.636;2023-03-01T03:37:43;20.17;;;14.23;;
21513;SDS011;10918;48.102;11.636;2023-03-01T03:40:29;18.65;;;12.98;;
21513;SDS011;10918;48.102;11.636;2023-03-01T03:42:55;16.83;;;12.45;;
21513;SDS011;10918;48.102;11.636;2023-03-01T03:45:21;17.08;;;13.07;;
21513;SDS011;10918;48.102;11.636;2023-03-01T03:47:47;17.92;;;12.60;;
21513;SDS011;10918;48.102;11.636;2023-03-01T03:50:13;18.25;;;12.93;;
21513;SDS011;10918;48.102;11.636;2023-03-01T03:52:40;18.65;;;13.48;;
21513;SDS011;10918;48.102;11.636;2023-03-01T03:55:06;17.92;;;12.77;;
21513;SDS011;10918;48.102;11.636;2023-03-01T03:57:36;17.25;;;12.30;;
21513;SDS011;10918;48.102;11.636;2023-03-01T04:00:03;15.90;;;12.30;;
21513;SDS011;10918;48.102;11.636;2023-03-01T04:02:30;17.17;;;12.15;;
21513;SDS011;10918;48.102;11.636;2023-03-01T04:04:56;19.08;;;12.80;;
21513;SDS011;10918;48.102;11.636;2023-03-01T04:07:22;17.90;;;13.02;;
21513;SDS011;10918;48.102;11.636;2023-03-01T04:09:48;17.83;;;12.80;;
21513;SDS011;10918;48.102;11.636;2023-03-01T04:12:14;17.30;;;12.68;;
21513;SDS011;10918;48.102;11.636;2023-03-01T04:14:45;16.90;;;12.57;;
21513;SDS011;10918;48.102;11.636;2023-03-01T04:17:11;16.45;;;12.13;;
21513;SDS011;10918;48.102;11.636;2023-03-01T04:19:37;18.17;;;12.68;;
21513;SDS011;10918;48.102;11.636;2023-03-01T04:22:03;18.63;;;13.65;;
21513;SDS011;10918;48.102;11.636;2023-03-01T04:24:34;18.00;;;13.10;;
21513;SDS011;10918;48.102;11.636;2023-03-01T04:27:00;20.38;;;12.95;;
21513;SDS011;10918;48.102;11.636;2023-03-01T04:29:26;17.48;;;13.05;;
21513;SDS011;10918;48.102;11.636;2023-03-01T04:31:52;17.45;;;11.85;;
21513;SDS011;10918;48.102;11.636;2023-03-01T04:34:18;17.58;;;13.43;;
21513;SDS011;10918;48.102;11.636;2023-03-01T04:36:44;19.00;;;12.55;;
21513;SDS011;10918;48.102;11.636;2023-03-01T04:39:10;18.10;;;12.52;;
21513;SDS011;10918;48.102;11.636;2023-03-01T04:41:39;19.38;;;12.82;;
21513;SDS011;10918;48.102;11.636;2023-03-01T04:44:06;18.10;;;12.57;;
21513;SDS011;10918;48.102;11.636;2023-03-01T04:46:34;19.70;;;13.95;;
21513;SDS011;10918;48.102;11.636;2023-03-01T04:49:00;19.45;;;13.73;;
21513;SDS011;10918;48.102;11.636;2023-03-01T04:51:26;20.13;;;13.10;;
21513;SDS011;10918;48.102;11.636;2023-03-01T04:53:52;21.67;;;12.48;;
21513;SDS011;10918;48.102;11.636;2023-03-01T04:56:18;16.05;;;12.15;;
21513;SDS011;10918;48.102;11.636;2023-03-01T04:58:44;17.42;;;12.82;;
21513;SDS011;10918;48.102;11.636;2023-03-01T05:01:11;18.85;;;13.23;;
21513;SDS011;10918;48.102;11.636;2023-03-01T05:03:40;20.63;;;13.95;;
21513;SDS011;10918;48.102;11.636;2023-03-01T05:06:07;18.70;;;12.70;;
21513;SDS011;10918;48.102;11.636;2023-03-01T05:08:33;18.58;;;13.55;;
21513;SDS011;10918;48.102;11.636;2023-03-01T05:11:02;20.58;;;12.77;;
21513;SDS011;10918;48.102;11.636;2023-03-01T05:13:28;18.17;;;12.73;;
21513;SDS011;10918;48.102;11.636;2023-03-01T05:15:58;21.70;;;13.02;;
21513;SDS011;10918;48.102;11.636;2023-03-01T05:18:25;19.10;;;13.32;;
21513;SDS011;10918;48.102;11.636;2023-03-01T05:20:54;18.40;;;13.50;;
21513;SDS011;10918;48.102;11.636;2023-03-01T05:23:23;21.10;;;13.98;;
21513;SDS011;10918;48.102;11.636;2023-03-01T05:25:49;21.50;;;12.55;;
21513;SDS011;10918;48.102;11.636;2023-03-01T05:28:17;19.58;;;13.70;;
21513;SDS011;10918;48.102;11.636;2023-03-01T05:30:43;21.10;;;13.88;;
21513;SDS011;10918;48.102;11.636;2023-03-01T05:33:09;18.10;;;13.75;;
21513;SDS011;10918;48.102;11.636;2023-03-01T05:35:38;16.38;;;12.02;;
21513;SDS011;10918;48.102;11.636;2023-03-01T05:38:05;19.45;;;13.07;;
21513;SDS011;10918;48.102;11.636;2023-03-01T05:40:32;20.35;;;13.10;;
21513;SDS011;10918;48.102;11.636;2023-03-01T05:42:58;19.77;;;13.55;;
21513;SDS011;10918;48.102;11.636;2023-03-01T05:45:25;17.75;;;13.05;;
21513;SDS011;10918;48.102;11.636;2023-03-01T05:47:51;24.42;;;14.63;;
21513;SDS011;10918;48.102;11.636;2023-03-01T05:50:22;18.50;;;13.13;;
21513;SDS011;10918;48.102;11.636;2023-03-01T05:52:49;19.27;;;13.35;;
21513;SDS011;10918;48.102;11.636;2023-03-01T05:55:20;18.70;;;13.35;;
21513;SDS011;10918;48.102;11.636;2023-03-01T05:57:47;20.50;;;13.35;;
21513;SDS011;10918;48.102;11.636;2023-03-01T06:00:13;19.00;;;12.80;;
21513;SDS011;10918;48.102;11.636;2023-03-01T06:02:40;20.67;;;13.30;;
21513;SDS011;10918;48.102;11.636;2023-03-01T06:05:07;20.63;;;13.88;;
21513;SDS011;10918;48.102;11.636;2023-03-01T06:07:33;18.02;;;13.25;;
21513;SDS011;10918;48.102;11.636;2023-03-01T06:10:00;19.42;;;13.55;;
21513;SDS011;10918;48.102;11.636;2023-03-01T06:12:25;20.30;;;12.90;;
21513;SDS011;10918;48.102;11.636;2023-03-01T06:14:51;17.88;;;12.88;;
21513;SDS011;10918;48.102;11.636;2023-03-01T06:17:17;20.48;;;14.02;;
21513;SDS011;10918;48.102;11.636;2023-03-01T06:19:43;22.63;;;13.77;;
21513;SDS011;10918;48.102;11.636;2023-03-01T06:22:09;18.38;;;13.50;;
21513;SDS011;10918;48.102;11.636;2023-03-01T06:24:35;20.60;;;12.82;;
21513;SDS011;10918;48.102;11.636;2023-03-01T06:27:01;18.52;;;13.38;;
21513;SDS011;10918;48.102;11.636;2023-03-01T06:29:27;19.48;;;14.82;;
21513;SDS011;10918;48.102;11.636;2023-03-01T06:31:54;19.73;;;14.63;;
21513;SDS011;10918;48.102;11.636;2023-03-01T06:34:20;20.80;;;13.40;;
21513;SDS011;10918;48.102;11.636;2023-03-01T06:36:46;19.98;;;13.95;;
21513;SDS011;10918;48.102;11.636;2023-03-01T06:39:13;22.50;;;13.38;;
21513;SDS011;10918;48.102;11.636;2023-03-01T06:41:39;21.33;;;13.73;;
21513;SDS011;10918;48.102;11.636;2023-03-01T06:44:05;18.83;;;13.43;;
21513;SDS011;10918;48.102;11.636;2023-03-01T06:46:31;19.50;;;13.70;;
21513;SDS011;10918;48.102;11.636;2023-03-01T06:48:57;16.55;;;12.35;;
21513;SDS011;10918;48.102;11.636;2023-03-01T06:51:23;19.27;;;13.60;;
21513;SDS011;10918;48.102;11.636;2023-03-01T06:53:49;22.45;;;14.02;;
21513;SDS011;10918;48.102;11.636;2023-03-01T06:56:15;21.83;;;14.10;;
21513;SDS011;10918;48.102;11.636;2023-03-01T06:58:41;19.70;;;13.48;;
21513;SDS011;10918;48.102;11.636;2023-03-01T07:01:07;21.25;;;14.30;;
21513;SDS011;10918;48.102;11.636;2023-03-01T07:03:33;18.88;;;13.63;;
21513;SDS011;10918;48.102;11.636;2023-03-01T07:05:59;19.10;;;13.38;;
21513;SDS011;10918;48.102;11.636;2023-03-01T07:08:26;21.02;;;12.95;;
21513;SDS011;10918;48.102;11.636;2023-03-01T07:10:58;19.60;;;12.63;;
21513;SDS011;10918;48.102;11.636;2023-03-01T07:13:24;20.73;;;14.23;;
21513;SDS011;10918;48.102;11.636;2023-03-01T07:15:50;23.95;;;13.48;;
21513;SDS011;10918;48.102;11.636;2023-03-01T07:18:16;21.35;;;13.73;;
21513;SDS011;10918;48.102;11.636;2023-03-01T07:20:42;21.25;;;14.00;;
21513;SDS011;10918;48.102;11.636;2023-03-01T07:23:08;23.67;;;14.88;;
21513;SDS011;10918;48.102;11.636;2023-03-01T07:25:34;19.73;;;14.35;;
21513;SDS011;10918;48.102;11.636;2023-03-01T07:28:00;17.98;;;13.25;;
21513;SDS011;10918;48.102;11.636;2023-03-01T07:30:26;19.60;;;14.02;;
21513;SDS011;10918;48.102;11.636;2023-03-01T07:32:53;21.15;;;13.98;;
21513;SDS011;10918;48.102;11.636;2023-03-01T07:35:19;19.65;;;13.25;;
21513;SDS011;10918;48.102;11.636;2023-03-01T07:37:45;21.10;;;13.40;;
21513;SDS011;10918;48.102;11.636;2023-03-01T07:40:11;22.30;;;14.65;;
21513;SDS011;10918;48.102;11.636;2023-03-01T07:42:37;23.95;;;14.32;;
21513;SDS011;10918;48.102;11.636;2023-03-01T07:45:04;19.85;;;13.57;;
21513;SDS011;10918;48.102;11.636;2023-03-01T07:47:30;20.13;;;13.88;;
21513;SDS011;10918;48.102;11.636;2023-03-01T07:49:56;20.52;;;13.82;;
21513;SDS011;10918;48.102;11.636;2023-03-01T07:52:22;21.58;;;13.38;;
21513;SDS011;10918;48.102;11.636;2023-03-01T07:54:48;22.67;;;14.07;;
21513;SDS011;10918;48.102;11.636;2023-03-01T07:57:14;21.10;;;13.90;;
21513;SDS011;10918;48.102;11.636;2023-03-01T07:59:40;20.48;;;13.18;;
21513;SDS011;10918;48.102;11.636;2023-03-01T08:02:07;23.30;;;15.10;;
21513;SDS011;10918;48.102;11.636;2023-03-01T08:04:33;22.65;;;14.45;;
21513;SDS011;10918;48.102;11.636;2023-03-01T08:06:59;22.52;;;13.88;;
21513;SDS011;10918;48.102;11.636;2023-03-01T08:09:25;24.42;;;14.27;;
21513;SDS011;10918;48.102;11.636;2023-03-01T08:11:51;19.55;;;13.35;;
21513;SDS011;10918;48.102;11.636;2023-03-01T08:14:19;21.27;;;14.02;;
21513;SDS011;10918;48.102;11.636;2023-03-01T08:16:45;21.23;;;13.73;;
21513;SDS011;10918;48.102;11.636;2023-03-01T08:19:11;17.98;;;13.20;;
21513;SDS011;10918;48.102;11.636;2023-03-01T08:21:37;22.30;;;14.13;;
21513;SDS011;10918;48.102;11.636;2023-03-01T08:24:04;27.15;;;14.98;;
21513;SDS011;10918;48.102;11.636;2023-03-01T08:26:31;21.77;;;13.98;;
21513;SDS011;10918;48.102;11.636;2023-03-01T08:28:57;20.67;;;14.43;;
21513;SDS011;10918;48.102;11.636;2023-03-01T08:31:28;18.52;;;13.23;;
21513;SDS011;10918;48.102;11.636;2023-03-01T08:33:55;18.17;;;13.45;;
21513;SDS011;10918;48.102;11.636;2023-03-01T08:36:25;20.52;;;13.88;;
21513;SDS011;10918;48.102;11.636;2023-03-01T08:38:51;19.88;;;13.45;;
21513;SDS011;10918;48.102;11.636;2023-03-01T08:41:18;19.83;;;14.05;;
21513;SDS011;10918;48.102;11.636;2023-03-01T08:43:44;19.85;;;13.60;;
21513;SDS011;10918;48.102;11.636;2023-03-01T08:46:10;19.85;;;13.18;;
21513;SDS011;10918;48.102;11.636;2023-03-01T08:48:37;19.75;;;14.48;;
21513;SDS011;10918;48.102;11.636;2023-03-01T08:51:35;21.58;;;14.15;;
21513;SDS011;10918;48.102;11.636;2023-03-01T08:53:56;19.83;;;14.27;;
21513;SDS011;10918;48.102;11.636;2023-03-01T08:56:22;20.05;;;13.93;;
21513;SDS011;10918;48.102;11.636;2023-03-01T08:58:49;20.20;;;14.55;;
21513;SDS011;10918;48.102;11.636;2023-03-01T09:01:16;19.13;;;14.13;;
21513;SDS011;10918;48.102;11.636;2023-03-01T09:03:42;20.15;;;14.07;;
21513;SDS011;10918;48.102;11.636;2023-03-01T09:06:09;20.17;;;13.75;;
21513;SDS011;10918;48.102;11.636;2023-03-01T09:08:38;20.35;;;14.85;;
21513;SDS011;10918;48.102;11.636;2023-03-01T09:11:05;20.70;;;14.57;;
21513;SDS011;10918;48.102;11.636;2023-03-01T09:13:32;22.98;;;15.15;;
21513;SDS011;10918;48.102;11.636;2023-03-01T09:15:58;18.65;;;14.30;;
21513;SDS011;10918;48.102;11.636;2023-03-01T09:18:24;22.67;;;14.90;;
21513;SDS011;10918;48.102;11.636;2023-03-01T09:20:50;22.10;;;13.85;;
21513;SDS011;10918;48.102;11.636;2023-03-01T09:23:16;20.98;;;14.55;;
21513;SDS011;10918;48.102;11.636;2023-03-01T09:25:42;20.48;;;14.77;;
21513;SDS011;10918;48.102;11.636;2023-03-01T09:28:08;20.55;;;15.02;;
21513;SDS011;10918;48.102;11.636;2023-03-01T09:30:35;24.33;;;16.48;;
21513;SDS011;10918;48.102;11.636;2023-03-01T09:33:01;25.27;;;16.83;;
21513;SDS011;10918;48.102;11.636;2023-03-01T09:35:27;21.02;;;15.02;;
21513;SDS011;10918;48.102;11.636;2023-03-01T09:37:53;26.75;;;15.13;;
21513;SDS011;10918;48.102;11.636;2023-03-01T09:40:20;19.95;;;14.80;;
21513;SDS011;10918;48.102;11.636;2023-03-01T09:42:55;27.02;;;15.77;;
21513;SDS011;10918;48.102;11.636;2023-03-01T09:45:27;23.02;;;15.50;;
21513;SDS011;10918;48.102;11.636;2023-03-01T09:47:55;21.70;;;14.63;;
21513;SDS011;10918;48.102;11.636;2023-03-01T09:50:21;21.23;;;14.65;;
21513;SDS011;10918;48.102;11.636;2023-03-01T09:55:23;20.48;;;15.07;;
21513;SDS011;10918;48.102;11.636;2023-03-01T09:58:04;21.05;;;14.63;;
21513;SDS011;10918;48.102;11.636;2023-03-01T10:00:44;20.27;;;14.95;;
21513;SDS011;10918;48.102;11.636;2023-03-01T10:08:34;20.48;;;14.60;;
21513;SDS011;10918;48.102;11.636;2023-03-01T10:11:01;18.73;;;13.85;;
21513;SDS011;10918;48.102;11.636;2023-03-01T10:16:39;23.52;;;15.40;;
21513;SDS011;10918;48.102;11.636;2023-03-01T10:19:09;22.48;;;14.50;;
21513;SDS011;10918;48.102;11.636;2023-03-01T10:21:38;21.50;;;15.07;;
21513;SDS011;10918;48.102;11.636;2023-03-01T10:24:10;20.05;;;14.55;;
21513;SDS011;10918;48.102;11.636;2023-03-01T10:26:40;19.88;;;14.63;;
21513;SDS011;10918;48.102;11.636;2023-03-01T10:29:08;20.65;;;13.80;;
21513;SDS011;10918;48.102;11.636;2023-03-01T10:31:44;20.95;;;13.90;;
21513;SDS011;10918;48.102;11.636;2023-03-01T10:34:16;23.90;;;15.70;;
21513;SDS011;10918;48.102;11.636;2023-03-01T10:36:44;20.77;;;14.57;;
21513;SDS011;10918;48.102;11.636;2023-03-01T10:39:17;23.80;;;14.57;;
21513;SDS011;10918;48.102;11.636;2023-03-01T10:42:19;21.20;;;15.77;;
21513;SDS011;10918;48.102;11.636;2023-03-01T10:44:40;19.95;;;14.00;;
21513;SDS011;10918;48.102;11.636;2023-03-01T10:47:12;17.98;;;12.90;;
21513;SDS011;10918;48.102;11.636;2023-03-01T10:49:38;18.55;;;13.05;;
21513;SDS011;10918;48.102;11.636;2023-03-01T10:52:18;17.00;;;12.88;;
21513;SDS011;10918;48.102;11.636;2023-03-01T10:54:50;16.52;;;13.50;;
21513;SDS011;10918;48.102;11.636;2023-03-01T10:57:34;16.65;;;13.55;;
21513;SDS011;10918;48.102;11.636;2023-03-01T11:02:48;16.13;;;13.38;;
21513;SDS011;10918;48.102;11.636;2023-03-01T11:07:51;15.18;;;13.55;;
21513;SDS011;10918;48.102;11.636;2023-03-01T11:10:22;15.27;;;13.55;;
21513;SDS011;10918;48.102;11.636;2023-03-01T11:12:48;15.02;;;13.43;;
21513;SDS011;10918;48.102;11.636;2023-03-01T11:15:48;16.85;;;14.52;;
21513;SDS011;10918;48.102;11.636;2023-03-01T11:18:18;15.90;;;14.07;;
21513;SDS011;10918;48.102;11.636;2023-03-01T11:20:45;15.75;;;14.15;;
21513;SDS011;10918;48.102;11.636;2023-03-01T11:23:14;15.98;;;14.38;;
21513;SDS011;10918;48.102;11.636;2023-03-01T11:25:47;16.92;;;15.15;;
21513;SDS011;10918;48.102;11.636;2023-03-01T11:28:15;16.00;;;14.40;;
21513;SDS011;10918;48.102;11.636;2023-03-01T11:35:53;18.65;;;16.70;;
21513;SDS011;10918;48.102;11.636;2023-03-01T11:38:22;16.85;;;15.25;;
21513;SDS011;10918;48.102;11.636;2023-03-01T11:43:40;16.75;;;15.20;;
21513;SDS011;10918;48.102;11.636;2023-03-01T11:51:38;16.75;;;15.07;;
21513;SDS011;10918;48.102;11.636;2023-03-01T11:59:03;15.68;;;14.32;;
21513;SDS011;10918;48.102;11.636;2023-03-01T12:01:40;17.20;;;15.70;;
21513;SDS011;10918;48.102;11.636;2023-03-01T12:04:19;16.77;;;15.05;;
21513;SDS011;10918;48.102;11.636;2023-03-01T12:06:57;16.52;;;14.93;;
21513;SDS011;10918;48.102;11.636;2023-03-01T12:15:01;16.83;;;15.23;;
21513;SDS011;10918;48.102;11.636;2023-03-01T12:17:10;16.95;;;15.38;;
21513;SDS011;10918;48.102;11.636;2023-03-01T12:19:45;17.52;;;15.93;;
21513;SDS011;10918;48.102;11.636;2023-03-01T12:22:17;17.20;;;15.70;;
21513;SDS011;10918;48.102;11.636;2023-03-01T12:27:20;16.85;;;15.32;;
21513;SDS011;10918;48.102;11.636;2023-03-01T12:29:53;17.05;;;15.55;;
21513;SDS011;10918;48.102;11.636;2023-03-01T12:34:55;17.92;;;16.15;;
21513;SDS011;10918;48.102;11.636;2023-03-01T12:37:36;17.13;;;15.63;;
21513;SDS011;10918;48.102;11.636;2023-03-01T12:40:24;17.38;;;15.85;;
21513;SDS011;10918;48.102;11.636;2023-03-01T12:42:55;17.98;;;16.38;;
21513;SDS011;10918;48.102;11.636;2023-03-01T12:50:44;17.33;;;15.73;;
21513;SDS011;10918;48.102;11.636;2023-03-01T12:55:43;17.92;;;16.33;;
21513;SDS011;10918;48.102;11.636;2023-03-01T12:58:30;18.02;;;16.33;;
21513;SDS011;10918;48.102;11.636;2023-03-01T13:06:32;17.52;;;15.60;;
21513;SDS011;10918;48.102;11.636;2023-03-01T13:09:04;18.05;;;16.35;;
21513;SDS011;10918;48.102;11.636;2023-03-01T13:11:34;17.63;;;15.90;;
21513;SDS011;10918;48.102;11.636;2023-03-01T13:14:34;17.17;;;15.57;;
21513;SDS011;10918;48.102;11.636;2023-03-01T13:16:48;17.50;;;15.88;;
21513;SDS011;10918;48.102;11.636;2023-03-01T13:19:18;17.30;;;15.55;;
21513;SDS011;10918;48.102;11.636;2023-03-01T13:21:45;16.75;;;15.18;;
21513;SDS011;10918;48.102;11.636;2023-03-01T13:29:50;17.88;;;16.17;;
21513;SDS011;10918;48.102;11.636;2023-03-01T13:32:26;18.10;;;15.88;;
21513;SDS011;10918;48.102;11.636;2023-03-01T13:35:02;17.00;;;15.57;;
21513;SDS011;10918;48.102;11.636;2023-03-01T13:37:33;17.48;;;15.77;;
21513;SDS011;10918;48.102;11.636;2023-03-01T13:40:05;18.65;;;16.60;;
21513;SDS011;10918;48.102;11.636;2023-03-01T13:42:52;16.77;;;15.18;;
21513;SDS011;10918;48.102;11.636;2023-03-01T13:45:20;16.33;;;14.82;;
21513;SDS011;10918;48.102;11.636;2023-03-01T13:47:49;17.92;;;16.40;;
21513;SDS011;10918;48.102;11.636;2023-03-01T13:50:16;18.92;;;17.13;;
21513;SDS011;10918;48.102;11.636;2023-03-01T13:52:45;18.17;;;16.48;;
21513;SDS011;10918;48.102;11.636;2023-03-01T13:57:47;18.13;;;16.33;;
21513;SDS011;10918;48.102;11.636;2023-03-01T14:03:04;18.75;;;16.95;;
21513;SDS011;10918;48.102;11.636;2023-03-01T14:05:31;18.45;;;16.70;;
21513;SDS011;10918;48.102;11.636;2023-03-01T14:07:57;20.42;;;18.27;;
21513;SDS011;10918;48.102;11.636;2023-03-01T14:10:25;20.27;;;18.13;;
21513;SDS011;10918;48.102;11.636;2023-03-01T14:13:01;20.95;;;18.17;;
21513;SDS011;10918;48.102;11.636;2023-03-01T14:18:14;19.23;;;17.10;;
21513;SDS011;10918;48.102;11.636;2023-03-01T14:20:43;19.85;;;17.75;;
21513;SDS011;10918;48.102;11.636;2023-03-01T14:23:18;20.88;;;17.27;;
21513;SDS011;10918;48.102;11.636;2023-03-01T14:25:51;19.35;;;17.40;;
21513;SDS011;10918;48.102;11.636;2023-03-01T14:28:18;19.02;;;16.63;;
21513;SDS011;10918;48.102;11.636;2023-03-01T14:30:49;18.55;;;16.65;;
21513;SDS011;10918;48.102;11.636;2023-03-01T14:33:26;19.33;;;16.80;;
21513;SDS011;10918;48.102;11.636;2023-03-01T14:35:53;20.10;;;16.40;;
21513;SDS011;10918;48.102;11.636;2023-03-01T14:38:27;21.90;;;16.77;;
21513;SDS011;10918;48.102;11.636;2023-03-01T14:40:54;20.95;;;17.08;;
21513;SDS011;10918;48.102;11.636;2023-03-01T14:43:22;24.52;;;16.48;;
21513;SDS011;10918;48.102;11.636;2023-03-01T14:45:50;19.65;;;16.95;;
21513;SDS011;10918;48.102;11.636;2023-03-01T14:48:17;17.88;;;15.98;;
21513;SDS011;10918;48.102;11.636;2023-03-01T14:50:44;17.55;;;15.38;;
21513;SDS011;10918;48.102;11.636;2023-03-01T14:53:15;19.00;;;15.77;;
21513;SDS011;10918;48.102;11.636;2023-03-01T14:55:44;17.45;;;15.52;;
21513;SDS011;10918;48.102;11.636;2023-03-01T14:58:12;17.27;;;15.43;;
21513;SDS011;10918;48.102;11.636;2023-03-01T15:00:38;19.45;;;16.15;;
21513;SDS011;10918;48.102;11.636;2023-03-01T15:03:08;19.10;;;15.07;;
21513;SDS011;10918;48.102;11.636;2023-03-01T15:05:38;18.45;;;15.05;;
21513;SDS011;10918;48.102;11.636;2023-03-01T15:08:05;18.60;;;16.20;;
21513;SDS011;10918;48.102;11.636;2023-03-01T15:10:32;19.45;;;15.13;;
21513;SDS011;10918;48.102;11.636;2023-03-01T15:13:12;18.98;;;14.48;;
21513;SDS011;10918;48.102;11.636;2023-03-01T15:15:40;18.80;;;14.75;;
21513;SDS011;10918;48.102;11.636;2023-03-01T15:20:38;17.95;;;14.75;;
21513;SDS011;10918;48.102;11.636;2023-03-01T15:23:04;24.65;;;14.63;;
21513;SDS011;10918;48.102;11.636;2023-03-01T15:25:31;18.83;;;15.18;;
21513;SDS011;10918;48.102;11.636;2023-03-01T15:27:58;20.88;;;14.88;;
21513;SDS011;10918;48.102;11.636;2023-03-01T15:30:29;21.30;;;15.57;;
21513;SDS011;10918;48.102;11.636;2023-03-01T15:33:15;19.48;;;14.55;;
21513;SDS011;10918;48.102;11.636;2023-03-01T15:35:45;19.33;;;16.60;;
21513;SDS011;10918;48.102;11.636;2023-03-01T15:38:26;19.20;;;15.07;;
21513;SDS011;10918;48.102;11.636;2023-03-01T15:40:52;19.17;;;14.30;;
21513;SDS011;10918;48.102;11.636;2023-03-01T15:46:03;21.73;;;14.35;;
21513;SDS011;10918;48.102;11.636;2023-03-01T15:48:29;17.70;;;14.20;;